Time;durP1;ratioP1;P1;durP2;ratioP2;P2;SDS_P1;SDS_P2;PMS_P1;PMS_P2;Temp;Humidity;BMP_temperature;BMP_pressure;BME280_temperature;BME280_humidity;BME280_pressure;Samples;Min_cycle;Max_cycle;Signal;HPM_P1;HPM_P2
2023/08/13 00:01:12;;;;;;;;;4.00;4.00;;;;;22.16;62.34;101397.25;4959568;28;45407;-71
2023/08/13 00:03:38;;;;;;;;;3.00;3.00;;;;;22.23;62.32;101402.25;4959429;28;45464;-71
2023/08/13 00:06:03;;;;;;;;;4.25;3.00;;;;;22.25;62.23;101408.44;4964589;28;45534;-71
2023/08/13 00:08:29;;;;;;;;;4.25;3.00;;;;;22.31;62.85;101413.50;4965690;28;45545;-71
2023/08/13 00:10:54;;;;;;;;;3.50;3.50;;;;;22.23;62.49;101400.38;4959176;28;48835;-71
2023/08/13 00:13:19;;;;;;;;;3.50;3.50;;;;;22.09;62.84;101382.34;4959237;28;45393;-72
2023/08/13 00:15:45;;;;;;;;;2.75;2.00;;;;;22.29;62.99;101416.31;4959054;28;45420;-71
2023/08/13 00:18:11;;;;;;;;;3.00;3.00;;;;;22.19;63.37;101396.16;4971943;28;45473;-71
2023/08/13 00:20:36;;;;;;;;;2.50;2.50;;;;;22.12;62.28;101382.13;4978704;28;45309;-71
2023/08/13 00:23:02;;;;;;;;;2.25;2.00;;;;;22.11;62.23;101382.25;4977516;28;45344;-71
2023/08/13 00:25:28;;;;;;;;;4.00;3.00;;;;;22.06;62.00;101377.13;4978855;28;45367;-71
2023/08/13 00:27:53;;;;;;;;;1.75;1.75;;;;;22.04;62.17;101384.53;4978456;28;46339;-71
2023/08/13 00:30:18;;;;;;;;;2.50;2.00;;;;;22.06;62.14;101377.13;4977410;28;45280;-71
2023/08/13 00:32:44;;;;;;;;;3.00;1.75;;;;;22.08;61.58;101382.47;4977302;28;45812;-71
2023/08/13 00:35:09;;;;;;;;;2.00;2.00;;;;;22.04;61.84;101365.50;5019631;28;45228;-71
2023/08/13 00:37:37;;;;;;;;;1.00;1.00;;;;;22.14;61.70;101385.63;4959029;28;45554;-71
2023/08/13 00:40:06;;;;;;;;;1.75;1.75;;;;;21.94;61.57;101357.13;4959068;28;45391;-71
2023/08/13 00:42:31;;;;;;;;;1.00;1.00;;;;;22.09;61.61;101376.06;4959055;28;45383;-71
2023/08/13 00:44:57;;;;;;;;;4.00;4.00;;;;;22.02;61.82;101359.31;4959106;28;45344;-71
2023/08/13 00:47:22;;;;;;;;;3.00;1.25;;;;;21.90;61.45;101335.69;4958641;28;45381;-71
2023/08/13 00:49:50;;;;;;;;;2.00;1.50;;;;;22.11;61.90;101385.81;4958878;28;45354;-71
2023/08/13 00:52:15;;;;;;;;;2.25;1.75;;;;;21.95;62.12;101348.00;4958986;28;45340;-71
2023/08/13 00:54:41;;;;;;;;;1.25;1.25;;;;;22.06;62.43;101365.41;4964933;28;45369;-71
2023/08/13 00:57:08;;;;;;;;;2.00;2.00;;;;;21.94;61.92;101345.38;4973612;28;47155;-71
2023/08/13 00:59:34;;;;;;;;;0.00;0.00;;;;;21.97;62.28;101353.34;4958854;28;45521;-71
2023/08/13 01:02:00;;;;;;;;;3.00;1.75;;;;;22.05;62.79;101372.66;4958620;28;45394;-71
2023/08/13 01:04:25;;;;;;;;;3.50;1.00;;;;;22.05;62.43;101366.34;4958057;28;45257;-71
2023/08/13 01:07:03;;;;;;;;;2.00;2.00;;;;;22.11;62.57;101385.81;4957852;28;46792;-71
2023/08/13 01:10:04;;;;;;;;;1.00;1.00;;;;;21.90;62.61;101352.00;4958858;28;45339;-71
2023/08/13 01:13:02;;;;;;;;;1.25;1.00;;;;;21.84;62.60;101350.59;4958582;28;45435;-71
2023/08/13 01:15:38;;;;;;;;;4.00;2.50;;;;;21.90;62.54;101358.34;4958397;28;45473;-71
2023/08/13 01:18:07;;;;;;;;;3.00;2.00;;;;;21.86;62.80;101353.22;4970393;28;46076;-71
2023/08/13 01:20:36;;;;;;;;;2.00;2.00;;;;;21.89;62.92;101361.16;4970560;28;45411;-71
2023/08/13 01:23:01;;;;;;;;;3.00;2.00;;;;;22.05;62.75;101388.97;4958756;28;45401;-71
2023/08/13 01:25:28;;;;;;;;;1.00;1.00;;;;;21.94;62.74;101368.00;4973216;28;45473;-71
2023/08/13 01:28:15;;;;;;;;;2.00;2.00;;;;;22.03;62.95;101382.78;4958483;28;46627;-71
2023/08/13 01:30:56;;;;;;;;;1.00;1.00;;;;;21.83;62.47;101360.59;4967514;28;45410;-71
2023/08/13 01:33:28;;;;;;;;;2.50;1.00;;;;;21.78;62.93;101342.88;4983642;28;45414;-71
2023/08/13 01:35:57;;;;;;;;;3.00;2.00;;;;;21.97;63.36;101370.50;5006677;27;45442;-71
2023/08/13 01:38:23;;;;;;;;;3.25;2.00;;;;;21.75;63.02;101338.53;4958354;28;48272;-71
2023/08/13 01:40:50;;;;;;;;;3.00;1.50;;;;;21.97;62.90;101372.34;4969253;28;45403;-71
2023/08/13 01:43:15;;;;;;;;;3.00;1.50;;;;;21.84;62.94;101348.75;4958967;28;45265;-71
2023/08/13 01:45:40;;;;;;;;;3.25;2.75;;;;;21.83;63.17;101349.75;4968968;28;45478;-71
2023/08/13 01:48:06;;;;;;;;;2.25;2.00;;;;;21.98;63.04;101372.22;4959055;28;45382;-71
2023/08/13 01:50:32;;;;;;;;;1.00;1.00;;;;;21.80;63.21;101344.50;4957884;28;45374;-71
2023/08/13 01:52:57;;;;;;;;;1.50;1.00;;;;;21.95;63.43;101366.13;4958139;28;45444;-71
2023/08/13 01:55:22;;;;;;;;;2.00;2.00;;;;;21.77;63.23;101344.72;4968366;28;45552;-71
2023/08/13 01:57:48;;;;;;;;;3.25;1.25;;;;;21.86;63.22;101358.66;4975975;28;48321;-71
2023/08/13 02:00:13;;;;;;;;;1.00;1.00;;;;;21.89;63.30;101358.44;4966189;28;45390;-71
2023/08/13 02:02:39;;;;;;;;;2.00;1.50;;;;;21.80;63.90;101357.22;4974451;28;46171;-71
2023/08/13 02:05:05;;;;;;;;;1.75;1.25;;;;;21.77;63.17;101355.59;4965902;28;45427;-71
2023/08/13 02:07:31;;;;;;;;;3.00;1.75;;;;;21.69;63.59;101332.66;4974520;28;47122;-71
2023/08/13 02:09:56;;;;;;;;;2.00;2.00;;;;;21.70;63.73;101331.66;4966187;28;45317;-71
2023/08/13 02:12:22;;;;;;;;;3.00;2.00;;;;;21.83;63.83;101362.44;4957844;28;45355;-71
2023/08/13 02:14:47;;;;;;;;;2.25;2.25;;;;;21.73;63.08;101342.31;4957898;28;45421;-71
2023/08/13 02:17:14;;;;;;;;;2.00;2.00;;;;;21.77;63.44;101361.03;4962222;28;46672;-71
2023/08/13 02:19:40;;;;;;;;;3.25;2.00;;;;;21.77;63.39;101358.31;4963917;28;45551;-71
2023/08/13 02:22:08;;;;;;;;;1.00;1.00;;;;;21.85;63.54;101374.06;4962128;28;45584;-71
2023/08/13 02:24:34;;;;;;;;;3.75;2.50;;;;;21.86;63.67;101377.66;4964658;28;45516;-71
2023/08/13 02:26:59;;;;;;;;;4.50;1.50;;;;;21.69;63.79;101347.09;4957560;28;46192;-71
2023/08/13 02:29:25;;;;;;;;;4.50;1.75;;;;;21.59;63.70;101327.84;4968963;28;45421;-71
2023/08/13 02:31:50;;;;;;;;;2.75;2.75;;;;;21.74;63.65;101353.09;4958051;28;45340;-71
2023/08/13 02:34:15;;;;;;;;;2.75;2.75;;;;;21.70;64.04;101339.81;5008163;28;45745;-71
2023/08/13 02:36:41;;;;;;;;;3.00;3.00;;;;;21.87;63.84;101371.25;4960882;27;45255;-71
2023/08/13 02:39:06;;;;;;;;;4.00;3.25;;;;;21.75;63.95;101346.69;4968542;28;45398;-71
2023/08/13 02:41:32;;;;;;;;;2.50;2.50;;;;;21.83;63.83;101363.31;4958276;28;45333;-71
2023/08/13 02:43:57;;;;;;;;;3.50;2.00;;;;;21.69;63.89;101336.25;4968468;28;45458;-71
2023/08/13 02:46:24;;;;;;;;;1.75;1.75;;;;;21.80;64.17;101358.09;4975605;28;47484;-71
2023/08/13 02:48:54;;;;;;;;;2.00;2.00;;;;;21.84;64.76;101365.03;4964717;28;45395;-71
2023/08/13 02:51:20;;;;;;;;;3.00;3.00;;;;;21.62;64.84;101326.78;4957434;28;45341;-71
2023/08/13 02:53:46;;;;;;;;;2.00;2.00;;;;;21.60;64.66;101331.44;4957274;28;45450;-71
2023/08/13 02:56:11;;;;;;;;;3.00;2.00;;;;;21.62;64.56;101330.38;4957227;28;45364;-71
2023/08/13 02:58:37;;;;;;;;;1.00;1.00;;;;;21.59;64.78;101327.00;4957257;28;45327;-71
2023/08/13 03:01:03;;;;;;;;;3.50;2.00;;;;;21.57;64.41;101329.81;4957224;28;45276;-71
2023/08/13 03:03:28;;;;;;;;;4.00;2.25;;;;;21.67;64.46;101349.06;4957065;28;45281;-71
2023/08/13 03:05:54;;;;;;;;;1.25;1.25;;;;;21.56;64.84;101322.63;4956709;28;46120;-71
2023/08/13 03:08:19;;;;;;;;;2.00;2.00;;;;;21.55;64.94;101320.03;4967960;28;45320;-71
2023/08/13 03:10:45;;;;;;;;;2.00;2.00;;;;;21.56;64.86;101325.34;4972141;28;45377;-71
2023/08/13 03:13:10;;;;;;;;;1.00;1.00;;;;;21.64;64.71;101332.97;4956944;28;45626;-71
2023/08/13 03:15:36;;;;;;;;;1.00;1.00;;;;;21.58;64.68;101322.53;4956771;28;46158;-71
2023/08/13 03:18:01;;;;;;;;;3.50;1.75;;;;;21.65;64.73;101337.41;4967494;28;45466;-71
2023/08/13 03:20:26;;;;;;;;;3.00;2.00;;;;;21.49;65.23;101304.16;4974945;28;45389;-71
2023/08/13 03:22:52;;;;;;;;;1.75;1.75;;;;;21.51;65.21;101313.06;4976410;28;45411;-71
2023/08/13 03:25:17;;;;;;;;;4.25;2.50;;;;;21.61;65.11;101328.59;4976210;28;45270;-71
2023/08/13 03:27:42;;;;;;;;;4.00;2.00;;;;;21.51;65.48;101313.06;4976390;28;45415;-71
2023/08/13 03:30:08;;;;;;;;;3.00;2.00;;;;;21.50;65.55;101319.47;4979179;28;45431;-71
2023/08/13 03:32:33;;;;;;;;;2.50;2.00;;;;;21.61;65.11;101346.78;4979263;28;45775;-71
2023/08/13 03:34:59;;;;;;;;;4.75;2.50;;;;;21.44;65.88;101324.31;5022029;28;47431;-71
2023/08/13 03:37:24;;;;;;;;;4.75;3.00;;;;;21.48;65.76;101329.59;4966067;28;45428;-71
2023/08/13 03:39:50;;;;;;;;;2.75;2.00;;;;;21.42;65.91;101329.00;4959619;28;45518;-71
2023/08/13 03:42:15;;;;;;;;;3.25;2.50;;;;;21.40;65.46;101324.63;4959764;28;45567;-71
2023/08/13 03:44:41;;;;;;;;;3.50;2.25;;;;;21.31;65.79;101322.56;4959510;28;45453;-71
2023/08/13 03:47:07;;;;;;;;;1.50;1.50;;;;;21.38;65.59;101337.44;4959555;28;45279;-71
2023/08/13 03:49:33;;;;;;;;;2.00;1.00;;;;;21.15;65.44;101296.47;4975373;28;45764;-71
2023/08/13 03:51:58;;;;;;;;;2.50;2.00;;;;;21.28;65.57;101321.81;4968678;28;45667;-71
2023/08/13 03:54:24;;;;;;;;;3.00;1.50;;;;;21.27;65.60;101320.06;4959487;28;46112;-71
2023/08/13 03:56:50;;;;;;;;;4.00;2.50;;;;;21.41;65.82;101359.84;4959602;28;45496;-71
2023/08/13 03:59:15;;;;;;;;;2.50;2.50;;;;;21.26;66.27;101331.88;4959410;28;45316;-71
2023/08/13 04:01:40;;;;;;;;;4.00;3.00;;;;;21.10;65.66;101312.19;4959490;28;45656;-71
2023/08/13 04:04:06;;;;;;;;;2.25;2.00;;;;;21.32;66.21;101354.16;4959320;28;45498;-71
2023/08/13 04:06:31;;;;;;;;;3.00;2.75;;;;;21.27;66.35;101349.91;4959136;28;45428;-71
2023/08/13 04:08:56;;;;;;;;;2.75;2.75;;;;;;;;4959494;28;45440;-71
2023/08/13 04:11:22;;;;;;;;;2.50;2.50;;;;;21.04;66.33;101327.03;4959171;28;45395;-71
2023/08/13 04:13:47;;;;;;;;;3.50;3.00;;;;;21.03;66.69;101321.72;4974315;28;48462;-71
2023/08/13 04:16:12;;;;;;;;;2.75;2.00;;;;;20.99;66.62;101315.63;4968969;28;45536;-71
2023/08/13 04:18:38;;;;;;;;;4.25;2.00;;;;;21.00;66.85;101328.22;4975975;28;45464;-71
2023/08/13 04:21:03;;;;;;;;;3.25;3.00;;;;;21.01;66.95;101329.94;4978548;28;45472;-71
2023/08/13 04:23:29;;;;;;;;;2.00;1.00;;;;;20.99;67.13;101325.63;4978438;28;45588;-71
2023/08/13 04:25:54;;;;;;;;;3.00;3.00;;;;;20.98;67.00;101329.28;4978671;28;45426;-71
2023/08/13 04:28:19;;;;;;;;;4.00;3.25;;;;;21.13;67.27;101359.97;4978616;28;45596;-71
2023/08/13 04:30:45;;;;;;;;;2.50;2.00;;;;;21.02;67.14;101337.13;4978662;28;45453;-71
2023/08/13 04:33:10;;;;;;;;;4.00;3.00;;;;;20.98;67.30;101337.44;4977197;28;45402;-71
2023/08/13 04:35:35;;;;;;;;;3.50;3.00;;;;;21.03;67.53;101363.31;5014564;28;45460;-71
2023/08/13 04:38:01;;;;;;;;;5.00;2.75;;;;;20.94;67.67;101347.63;4959111;28;45745;-71
2023/08/13 04:40:26;;;;;;;;;2.00;2.00;;;;;20.96;67.57;101356.53;4958720;28;45314;-71
2023/08/13 04:42:52;;;;;;;;;3.75;3.00;;;;;20.96;67.80;101358.38;4958869;28;45833;-71
2023/08/13 04:45:17;;;;;;;;;3.00;2.00;;;;;20.78;67.70;101326.09;4959144;28;45342;-71
2023/08/13 04:47:42;;;;;;;;;3.00;3.00;;;;;20.93;67.55;101359.44;4958866;28;45373;-71
2023/08/13 04:50:08;;;;;;;;;3.00;2.00;;;;;20.72;67.80;101318.34;4958880;28;45249;-71
2023/08/13 04:52:34;;;;;;;;;5.00;3.00;;;;;20.72;68.23;101329.19;4958765;28;46508;-71
2023/08/13 04:55:00;;;;;;;;;4.00;2.00;;;;;20.68;67.82;101319.50;4959022;28;45441;-71
2023/08/13 04:57:26;;;;;;;;;5.50;3.00;;;;;20.75;68.03;101325.41;4958929;28;45379;-71
2023/08/13 04:59:51;;;;;;;;;3.50;2.00;;;;;20.63;68.29;101316.22;4958857;28;45504;-71
2023/08/13 05:02:17;;;;;;;;;2.00;1.00;;;;;20.70;68.38;101342.00;4958393;28;45905;-71
2023/08/13 05:04:42;;;;;;;;;1.00;1.00;;;;;20.64;68.41;101329.69;4958667;28;45389;-71
2023/08/13 05:07:07;;;;;;;;;3.50;2.00;;;;;20.63;68.81;101333.38;4958608;28;45564;-71
2023/08/13 05:09:34;;;;;;;;;2.25;2.00;;;;;20.71;68.55;101354.56;4958809;28;45675;-71
2023/08/13 05:11:59;;;;;;;;;1.50;1.25;;;;;20.66;69.08;101346.72;4958367;28;46245;-71
2023/08/13 05:14:25;;;;;;;;;2.25;2.25;;;;;20.55;68.78;101327.56;4958620;28;45451;-71
2023/08/13 05:16:50;;;;;;;;;2.00;1.75;;;;;20.64;68.45;101347.81;4970609;28;45520;-71
2023/08/13 05:19:15;;;;;;;;;2.75;2.25;;;;;20.56;68.38;101332.00;4977837;28;45697;-71
2023/08/13 05:21:41;;;;;;;;;5.00;1.25;;;;;20.55;68.85;101331.13;4977847;28;45383;-71
2023/08/13 05:24:06;;;;;;;;;2.25;2.25;;;;;20.65;69.12;101353.16;4976734;28;45768;-71
2023/08/13 05:26:32;;;;;;;;;3.00;2.00;;;;;20.50;68.82;101321.56;4976676;28;45369;-71
2023/08/13 05:28:57;;;;;;;;;3.25;1.00;;;;;20.59;69.16;101339.06;4960503;28;45273;-71
2023/08/13 05:31:23;;;;;;;;;2.00;2.00;;;;;20.75;69.22;101355.22;4963111;28;46405;-71
2023/08/13 05:33:48;;;;;;;;;3.75;2.25;;;;;20.78;69.46;101363.19;5002336;28;45347;-71
2023/08/13 05:36:13;;;;;;;;;2.00;2.00;;;;;20.65;69.05;101339.59;4987411;27;45926;-71
2023/08/13 05:38:39;;;;;;;;;2.00;2.00;;;;;20.48;68.88;101316.25;4958440;28;45307;-71
2023/08/13 05:41:05;;;;;;;;;2.00;2.00;;;;;20.55;69.09;101325.72;4958311;28;45427;-71
2023/08/13 05:43:30;;;;;;;;;2.00;2.00;;;;;20.62;69.26;101350.59;4964794;28;45875;-71
2023/08/13 05:45:56;;;;;;;;;3.00;3.00;;;;;20.65;69.60;101346.84;4963685;28;45681;-71
2023/08/13 05:48:21;;;;;;;;;2.75;1.00;;;;;20.62;69.63;101337.03;4958216;28;45441;-71
2023/08/13 05:50:46;;;;;;;;;1.00;1.00;;;;;20.67;69.95;101350.34;4957210;28;45625;-71
2023/08/13 05:53:12;;;;;;;;;4.25;3.00;;;;;20.62;69.40;101338.88;4964153;28;45639;-71
2023/08/13 05:55:37;;;;;;;;;4.00;2.75;;;;;20.63;69.55;101340.63;4963624;28;45430;-71
2023/08/13 05:58:02;;;;;;;;;2.25;2.25;;;;;20.69;69.59;101349.25;4958236;28;45473;-71
2023/08/13 06:00:29;;;;;;;;;5.00;2.75;;;;;20.83;69.55;101366.47;4957933;28;46028;-71
2023/08/13 06:02:54;;;;;;;;;3.75;3.00;;;;;20.75;69.46;101348.00;4957854;28;45415;-71
2023/08/13 06:05:20;;;;;;;;;3.00;2.00;;;;;20.59;69.31;101322.81;4969576;28;45384;-71
2023/08/13 06:07:45;;;;;;;;;6.50;2.75;;;;;20.88;69.44;101370.63;4957998;28;45334;-71
2023/08/13 06:10:10;;;;;;;;;4.50;3.25;;;;;20.71;69.13;101352.75;4957952;28;45605;-71
2023/08/13 06:12:36;;;;;;;;;1.75;1.75;;;;;20.86;69.70;101372.53;4963666;28;45352;-71
2023/08/13 06:15:01;;;;;;;;;2.00;1.25;;;;;20.74;69.06;101351.66;4963581;28;45518;-71
2023/08/13 06:17:27;;;;;;;;;2.25;2.00;;;;;20.71;69.49;101333.75;4965063;28;45314;-71
2023/08/13 06:19:52;;;;;;;;;1.50;1.50;;;;;20.71;69.65;101346.44;4976869;28;46674;-71
2023/08/13 06:22:18;;;;;;;;;3.00;3.00;;;;;20.90;70.03;101378.66;4977376;28;45435;-71
2023/08/13 06:24:43;;;;;;;;;1.25;1.25;;;;;20.77;70.17;101356.03;4977343;28;45298;-71
2023/08/13 06:27:08;;;;;;;;;3.50;1.25;;;;;20.80;70.44;101359.41;4977433;28;45340;-70
2023/08/13 06:29:34;;;;;;;;;3.25;2.00;;;;;20.74;69.89;101338.09;4975722;28;48094;-71
2023/08/13 06:31:59;;;;;;;;;5.00;3.75;;;;;20.79;69.76;101354.94;4977024;28;45418;-71
2023/08/13 06:34:25;;;;;;;;;2.00;2.00;;;;;20.77;70.24;101340.63;5022741;28;45534;-71
2023/08/13 06:36:51;;;;;;;;;3.25;3.00;;;;;20.76;69.81;101352.44;4957776;28;45296;-71
2023/08/13 06:39:16;;;;;;;;;1.75;1.50;;;;;20.86;70.27;101363.53;4957309;28;45825;-70
2023/08/13 06:41:41;;;;;;;;;2.00;2.00;;;;;20.84;70.19;101360.94;4957719;28;45744;-71
2023/08/13 06:44:19;;;;;;;;;2.00;2.00;;;;;20.82;70.20;101345.75;4969268;28;45384;-71
2023/08/13 06:46:47;;;;;;;;;2.25;1.50;;;;;20.83;69.97;101344.75;4957611;28;45345;-71
2023/08/13 06:49:13;;;;;;;;;1.00;1.00;;;;;20.87;70.10;101358.03;4957055;28;45668;-71
2023/08/13 06:51:38;;;;;;;;;2.75;1.50;;;;;20.88;69.77;101353.47;4965010;28;45336;-71
2023/08/13 06:54:04;;;;;;;;;2.50;2.25;;;;;21.00;70.07;101368.94;4973331;28;45329;-71
2023/08/13 06:56:30;;;;;;;;;2.75;1.75;;;;;21.00;69.81;101365.34;4964886;28;45917;-71
2023/08/13 06:58:56;;;;;;;;;2.00;2.00;;;;;21.08;69.78;101380.16;4961233;28;46556;-71
2023/08/13 07:01:22;;;;;;;;;2.50;2.00;;;;;20.89;69.72;101347.94;4956010;28;46161;-71
2023/08/13 07:03:47;;;;;;;;;2.00;2.00;;;;;21.12;69.89;101380.81;4957200;28;45568;-71
2023/08/13 07:06:13;;;;;;;;;2.50;1.00;;;;;20.97;69.56;101354.72;4957065;28;45383;-71
2023/08/13 07:08:38;;;;;;;;;2.00;2.00;;;;;21.05;69.68;101357.78;4956987;28;46178;-71
2023/08/13 07:11:04;;;;;;;;;2.75;2.00;;;;;21.08;68.95;101374.72;4957334;28;45691;-71
2023/08/13 07:13:30;;;;;;;;;1.00;1.00;;;;;21.01;69.29;101354.38;4956891;28;45379;-71
2023/08/13 07:15:55;;;;;;;;;1.00;1.00;;;;;21.09;68.99;101364.75;4957158;28;45396;-71
2023/08/13 07:18:21;;;;;;;;;3.00;2.00;;;;;21.08;68.95;101368.41;4971107;28;46174;-71
2023/08/13 07:20:46;;;;;;;;;2.00;1.75;;;;;21.10;69.19;101378.22;4974948;28;45357;-71
2023/08/13 07:23:12;;;;;;;;;1.00;1.00;;;;;21.03;69.31;101354.28;4976412;28;45244;-71
2023/08/13 07:25:37;;;;;;;;;4.00;2.75;;;;;21.09;69.48;101365.59;4976561;28;45334;-71
2023/08/13 07:28:03;;;;;;;;;3.00;1.00;;;;;21.13;69.04;101371.69;4975002;28;48145;-71
2023/08/13 07:30:28;;;;;;;;;2.00;1.00;;;;;21.05;69.45;101357.78;4975101;28;45330;-70
2023/08/13 07:32:54;;;;;;;;;2.50;2.00;;;;;21.05;69.26;101357.78;4962082;28;45705;-70
2023/08/13 07:35:19;;;;;;;;;0.00;0.00;;;;;21.27;68.41;101387.94;5038941;28;45659;-70
2023/08/13 07:37:47;;;;;;;;;1.75;1.00;;;;;21.13;69.18;101366.25;4956785;28;46281;-71
2023/08/13 07:40:12;;;;;;;;;2.00;1.00;;;;;21.20;68.67;101369.44;4963162;28;45578;-71
2023/08/13 07:42:39;;;;;;;;;0.00;0.00;;;;;21.22;68.78;101371.09;4962131;28;45444;-71
2023/08/13 07:45:08;;;;;;;;;2.00;1.75;;;;;21.19;68.37;101365.00;4956743;28;45509;-71
2023/08/13 07:47:34;;;;;;;;;2.00;0.75;;;;;21.12;68.90;101350.97;4956386;28;46347;-71
2023/08/13 07:50:00;;;;;;;;;2.00;2.00;;;;;21.19;69.08;101351.41;4956511;28;45699;-71
2023/08/13 07:52:26;;;;;;;;;2.00;1.00;;;;;21.31;69.06;101377.72;4956600;28;45289;-71
2023/08/13 07:54:51;;;;;;;;;1.25;1.25;;;;;21.15;68.59;101358.00;4956644;28;45438;-71
2023/08/13 07:57:16;;;;;;;;;1.00;1.00;;;;;21.17;68.48;101347.94;4967974;28;46560;-71
2023/08/13 07:59:42;;;;;;;;;1.00;1.00;;;;;21.19;68.68;101352.28;4956399;28;45602;-71
2023/08/13 08:02:08;;;;;;;;;1.25;1.25;;;;;21.41;68.06;101377.97;4956424;28;45403;-71
2023/08/13 08:04:33;;;;;;;;;1.50;1.50;;;;;21.28;68.13;101350.78;4956259;28;45478;-71
2023/08/13 08:06:59;;;;;;;;;1.25;1.25;;;;;21.47;68.20;101385.75;4967991;28;47154;-71
2023/08/13 08:09:24;;;;;;;;;2.00;1.00;;;;;21.26;68.27;101340.03;4956246;28;45448;-71
2023/08/13 08:11:49;;;;;;;;;0.75;0.50;;;;;21.36;68.09;101362.00;4956173;28;45437;-71
2023/08/13 08:14:15;;;;;;;;;1.25;1.00;;;;;21.48;68.30;101373.91;4956766;28;45391;-71
2023/08/13 08:16:40;;;;;;;;;0.00;0.00;;;;;21.53;68.01;101376.31;4969652;28;46813;-71
2023/08/13 08:19:05;;;;;;;;;1.50;1.00;;;;;21.45;67.89;101355.06;4973891;28;45397;-71
2023/08/13 08:21:31;;;;;;;;;0.25;0.25;;;;;21.44;66.59;101346.03;4973154;28;45390;-71
2023/08/13 08:23:57;;;;;;;;;2.00;1.00;;;;;21.48;66.78;101357.59;4978829;28;45286;-71
2023/08/13 08:26:22;;;;;;;;;2.00;0.75;;;;;21.58;67.11;101368.72;4978529;28;46422;-71
2023/08/13 08:28:47;;;;;;;;;2.50;1.00;;;;;21.48;67.32;101348.59;4977355;28;45571;-71
2023/08/13 08:31:13;;;;;;;;;1.25;1.00;;;;;21.68;67.16;101372.53;4978670;28;45262;-71
2023/08/13 08:33:38;;;;;;;;;2.00;0.75;;;;;21.73;66.98;101381.22;4994702;28;45560;-71
2023/08/13 08:36:04;;;;;;;;;1.50;1.50;;;;;21.55;67.31;101352.63;4996007;27;45264;-71
2023/08/13 08:38:29;;;;;;;;;1.25;1.00;;;;;21.53;66.84;101341.84;4959169;28;45390;-71
2023/08/13 08:40:58;;;;;;;;;0.00;0.00;;;;;21.63;66.63;101345.69;4959116;28;45417;-71
2023/08/13 08:43:27;;;;;;;;;0.75;0.00;;;;;21.72;66.48;101356.88;4957810;28;45519;-71
2023/08/13 08:45:54;;;;;;;;;3.25;1.25;;;;;21.76;66.29;101364.72;4958788;28;46393;-71
2023/08/13 08:48:20;;;;;;;;;1.00;1.00;;;;;21.79;66.06;101369.94;4965425;28;46021;-71
2023/08/13 08:50:46;;;;;;;;;0.75;0.00;;;;;21.76;65.83;101358.41;4963994;28;45386;-71
2023/08/13 08:53:13;;;;;;;;;1.00;0.75;;;;;21.68;65.65;101328.19;4958998;28;45396;-71
2023/08/13 08:55:40;;;;;;;;;1.00;1.00;;;;;21.52;65.90;101310.25;4958710;28;45621;-71
2023/08/13 08:58:07;;;;;;;;;0.25;0.00;;;;;21.84;65.82;101366.91;4959027;28;45321;-71
2023/08/13 09:00:32;;;;;;;;;2.00;0.75;;;;;21.75;65.93;101334.94;4958869;28;45268;-71
2023/08/13 09:02:58;;;;;;;;;0.75;0.75;;;;;21.67;65.77;101316.47;4958733;28;45257;-71
2023/08/13 09:05:24;;;;;;;;;2.00;0.00;;;;;21.93;65.89;101357.22;4958394;28;45445;-70
2023/08/13 09:07:49;;;;;;;;;2.00;0.00;;;;;21.78;66.01;101337.44;4958920;28;45354;-71
2023/08/13 09:10:14;;;;;;;;;1.00;1.00;;;;;21.83;65.94;101340.69;4958667;28;45258;-71
2023/08/13 09:12:42;;;;;;;;;3.00;1.00;;;;;21.97;65.05;101367.78;4958656;28;45334;-71
2023/08/13 09:15:10;;;;;;;;;0.25;0.00;;;;;21.87;64.68;101349.50;4958442;28;45403;-71
2023/08/13 09:17:35;;;;;;;;;1.00;0.00;;;;;21.80;64.59;101343.63;4965542;28;45547;-71
2023/08/13 09:20:08;;;;;;;;;0.25;0.00;;;;;21.79;64.79;101339.19;4963223;28;45483;-71
2023/08/13 09:22:34;;;;;;;;;0.25;0.00;;;;;21.99;64.28;101371.25;4968320;28;45854;-71
2023/08/13 09:25:03;;;;;;;;;4.00;0.75;;;;;21.95;64.45;101364.31;4973327;28;46401;-71
2023/08/13 09:27:29;;;;;;;;;1.50;0.50;;;;;22.01;64.37;101360.28;4965894;28;45553;-71
2023/08/13 09:29:57;;;;;;;;;3.00;0.00;;;;;21.86;64.81;101339.63;4973484;28;45402;-71
2023/08/13 09:32:22;;;;;;;;;2.25;1.00;;;;;22.04;64.75;101361.91;4958410;28;45524;-70
2023/08/13 09:34:51;;;;;;;;;0.25;0.00;;;;;22.04;64.50;101360.06;5020814;28;47223;-71
2023/08/13 09:37:17;;;;;;;;;2.00;1.00;;;;;22.11;64.85;101363.22;4977824;28;45318;-71
2023/08/13 09:39:42;;;;;;;;;0.00;0.00;;;;;21.95;64.22;101333.53;4977833;28;45358;-71
2023/08/13 09:42:08;;;;;;;;;1.00;1.00;;;;;22.13;63.98;101355.81;4977836;28;45427;-71
2023/08/13 09:44:34;;;;;;;;;0.00;0.00;;;;;21.99;64.31;101325.03;4959277;28;48117;-71
2023/08/13 09:47:01;;;;;;;;;0.00;0.00;;;;;22.07;63.64;101324.50;4968821;28;45268;-71
2023/08/13 09:49:32;;;;;;;;;1.00;0.00;;;;;22.20;63.09;101349.84;4977561;28;45489;-71
2023/08/13 09:52:04;;;;;;;;;3.00;1.00;;;;;22.13;62.84;101337.63;4977762;28;45504;-71
2023/08/13 09:54:46;;;;;;;;;0.00;0.00;;;;;22.21;63.03;101342.53;4977468;28;45606;-71
2023/08/13 09:57:17;;;;;;;;;1.00;0.00;;;;;22.09;63.26;101318.97;4977607;28;45447;-71
2023/08/13 09:59:43;;;;;;;;;1.00;0.00;;;;;22.07;62.53;101321.78;4977665;28;45363;-70
2023/08/13 10:02:08;;;;;;;;;0.00;0.00;;;;;22.17;62.16;101328.31;4977444;28;45270;-71
2023/08/13 10:04:41;;;;;;;;;1.00;0.00;;;;;22.19;62.98;101317.31;4977392;28;45532;-71
2023/08/13 10:07:07;;;;;;;;;1.00;0.00;;;;;22.15;63.03;101321.22;4977301;28;45509;-71
2023/08/13 10:09:33;;;;;;;;;2.00;1.00;;;;;22.29;63.01;101328.44;4977621;28;45342;-70
2023/08/13 10:12:01;;;;;;;;;1.00;0.00;;;;;22.25;63.13;101321.44;4977145;28;45320;-71
2023/08/13 10:14:27;;;;;;;;;2.50;1.00;;;;;22.32;63.06;101322.75;4966585;28;47307;-70
2023/08/13 10:16:52;;;;;;;;;0.75;0.75;;;;;22.39;62.32;101333.06;4958985;28;45756;-70
2023/08/13 10:19:19;;;;;;;;;1.25;1.00;;;;;22.31;62.01;101323.75;4977212;28;45482;-71
2023/08/13 10:21:56;;;;;;;;;0.00;0.00;;;;;22.52;62.32;101346.66;4977188;28;45410;-71
2023/08/13 10:24:22;;;;;;;;;1.00;0.00;;;;;22.28;61.79;101299.44;4977402;28;46442;-71
2023/08/13 10:26:48;;;;;;;;;2.00;0.00;;;;;22.52;62.28;101333.06;4977202;28;45684;-71
2023/08/13 10:29:19;;;;;;;;;0.75;0.75;;;;;22.44;62.85;101321.88;4977570;28;45314;-71
2023/08/13 10:31:55;;;;;;;;;1.25;1.00;;;;;22.54;61.77;101331.09;4977005;28;45380;-71
2023/08/13 10:34:44;;;;;;;;;0.00;0.00;;;;;22.54;62.66;101312.03;5024178;28;46292;-71
2023/08/13 10:37:20;;;;;;;;;0.25;0.00;;;;;22.71;61.66;101329.81;4957339;28;45421;-71
2023/08/13 10:40:02;;;;;;;;;1.00;1.00;;;;;22.61;61.95;101301.56;4957617;28;45414;-71
2023/08/13 10:42:36;;;;;;;;;2.50;1.00;;;;;22.84;61.66;101329.78;4969174;28;45861;-70
2023/08/13 10:45:04;;;;;;;;;1.00;0.00;;;;;22.86;60.76;101333.25;4969874;28;46411;-71
2023/08/13 10:47:51;;;;;;;;;1.00;1.00;;;;;22.76;62.02;101300.41;4957418;28;45760;-71
2023/08/13 10:50:21;;;;;;;;;4.75;3.00;;;;;22.94;62.03;101330.84;4957422;28;45636;-71
2023/08/13 10:52:55;;;;;;;;;2.25;1.00;;;;;22.79;61.12;101298.44;4973600;28;45354;-71
2023/08/13 10:55:24;;;;;;;;;1.50;1.00;;;;;22.82;61.59;101300.94;4975490;28;47325;-71
2023/08/13 10:57:53;;;;;;;;;2.00;1.00;;;;;22.86;60.95;101297.00;4972267;28;45463;-71
2023/08/13 11:00:21;;;;;;;;;1.00;1.00;;;;;22.92;60.94;101321.91;4968971;28;45469;-71
2023/08/13 11:02:54;;;;;;;;;3.25;1.00;;;;;22.74;61.18;101282.47;4970220;28;45303;-71
2023/08/13 11:05:21;;;;;;;;;3.75;1.00;;;;;22.89;60.74;101300.38;4956952;28;46178;-71
2023/08/13 11:07:47;;;;;;;;;3.75;2.00;;;;;22.85;61.00;101292.53;4957406;28;45517;-71
2023/08/13 11:10:19;;;;;;;;;3.00;2.00;;;;;22.74;61.17;101277.91;4957293;28;45245;-71
2023/08/13 11:12:48;;;;;;;;;3.00;1.00;;;;;22.81;61.12;101281.03;4955705;28;45852;-70
2023/08/13 11:15:15;;;;;;;;;2.00;1.00;;;;;23.06;60.68;101320.00;4968574;28;47445;-70
2023/08/13 11:17:46;;;;;;;;;2.50;2.00;;;;;23.03;60.51;101299.31;4966010;28;45330;-71
2023/08/13 11:20:13;;;;;;;;;1.75;1.00;;;;;23.09;60.80;101298.03;4971770;28;45369;-71
2023/08/13 11:22:39;;;;;;;;;1.00;1.00;;;;;23.04;59.59;101281.16;4965656;28;45436;-71
2023/08/13 11:25:05;;;;;;;;;2.00;2.00;;;;;23.24;60.29;101309.59;4971815;28;47524;-74